Time;durP1;ratioP1;P1;durP2;ratioP2;P2;SDS_P1;SDS_P2;PMS_P1;PMS_P2;Temp;Humidity;BMP_temperature;BMP_pressure;BME280_temperature;BME280_humidity;BME280_pressure;Samples;Min_cycle;Max_cycle;Signal;HPM_P1;HPM_P2
2022/03/04 00:00:10;;;;;;;1.63;0.80;;;7.90;93.40;;;;;;5089819;28;20711;-49
2022/03/04 00:02:40;;;;;;;2.00;0.70;;;7.90;93.50;;;;;;5086964;28;20187;-50
2022/03/04 00:05:08;;;;;;;1.43;0.80;;;7.90;93.60;;;;;;5089986;28;20725;-48
2022/03/04 00:07:35;;;;;;;2.90;0.77;;;7.90;93.60;;;;;;5084969;28;20198;-47
2022/03/04 00:10:04;;;;;;;2.17;0.57;;;7.80;93.70;;;;;;5086157;28;20550;-48
2022/03/04 00:12:31;;;;;;;2.67;0.83;;;7.80;93.80;;;;;;5088390;28;20205;-49
2022/03/04 00:14:58;;;;;;;0.60;0.60;;;7.80;93.90;;;;;;5097638;28;20241;-53
2022/03/04 00:17:25;;;;;;;2.07;0.70;;;7.70;94.00;;;;;;5087921;28;20491;-51
2022/03/04 00:19:52;;;;;;;1.10;0.80;;;7.70;94.00;;;;;;5091464;28;20196;-52
2022/03/04 00:22:19;;;;;;;2.53;0.70;;;7.70;94.00;;;;;;5091195;28;20628;-51
2022/03/04 00:24:46;;;;;;;2.23;1.00;;;7.70;94.00;;;;;;5088661;28;20572;-50
2022/03/04 00:27:15;;;;;;;4.17;0.80;;;7.70;93.90;;;;;;5089220;28;20247;-49
2022/03/04 00:29:42;;;;;;;1.20;0.60;;;7.70;94.00;;;;;;5084994;28;20192;-46
2022/03/04 00:32:10;;;;;;;3.50;0.80;;;7.70;94.10;;;;;;5098339;28;20548;-51
2022/03/04 00:34:38;;;;;;;3.43;0.90;;;7.70;94.10;;;;;;5104651;28;20204;-48
2022/03/04 00:37:05;;;;;;;2.47;0.70;;;7.70;94.10;;;;;;5090029;28;20250;-53
2022/03/04 00:39:32;;;;;;;2.63;0.80;;;7.70;94.10;;;;;;5086629;28;20194;-48
2022/03/04 00:41:59;;;;;;;3.90;1.00;;;7.70;94.10;;;;;;5086634;28;20303;-46
2022/03/04 00:44:28;;;;;;;1.37;0.63;;;7.70;94.00;;;;;;5087577;28;20213;-50
2022/03/04 00:46:55;;;;;;;1.47;0.50;;;7.70;94.00;;;;;;5085436;28;20252;-49
2022/03/04 00:49:22;;;;;;;2.93;0.60;;;7.70;94.00;;;;;;5090020;28;20279;-48
2022/03/04 00:51:49;;;;;;;2.10;0.90;;;7.80;94.00;;;;;;5081797;28;20554;-47
2022/03/04 00:54:16;;;;;;;2.93;0.83;;;7.80;94.00;;;;;;5091151;28;20200;-48
2022/03/04 00:56:44;;;;;;;1.10;0.70;;;7.70;93.80;;;;;;5090034;28;20587;-50
2022/03/04 00:59:11;;;;;;;2.03;0.93;;;7.70;93.80;;;;;;5087841;28;20662;-48
2022/03/04 01:01:39;;;;;;;1.53;0.70;;;7.70;93.80;;;;;;5085728;28;20208;-51
2022/03/04 01:04:06;;;;;;;3.83;0.60;;;7.70;93.80;;;;;;5083065;28;20226;-51
2022/03/04 01:06:34;;;;;;;3.60;1.00;;;7.70;93.80;;;;;;5084593;28;20271;-51
2022/03/04 01:09:01;;;;;;;1.97;0.80;;;7.70;93.70;;;;;;5080522;28;20234;-50
2022/03/04 01:11:28;;;;;;;5.37;0.77;;;7.60;93.70;;;;;;5086916;28;20220;-48
2022/03/04 01:13:55;;;;;;;2.23;0.60;;;7.60;93.80;;;;;;5091034;28;20215;-53
2022/03/04 01:16:23;;;;;;;1.90;0.77;;;7.60;93.80;;;;;;5091017;28;20193;-52
2022/03/04 01:18:51;;;;;;;2.50;0.93;;;7.60;93.90;;;;;;5083887;28;20196;-51
2022/03/04 01:21:19;;;;;;;3.20;0.80;;;7.50;93.80;;;;;;5084774;28;20197;-49
2022/03/04 01:23:46;;;;;;;4.47;0.80;;;7.50;93.80;;;;;;5084709;28;20198;-49
2022/03/04 01:26:13;;;;;;;3.70;0.80;;;7.60;93.90;;;;;;5089162;28;20648;-54
2022/03/04 01:28:40;;;;;;;2.20;0.90;;;7.50;93.90;;;;;;5083170;28;20197;-54
2022/03/04 01:31:09;;;;;;;2.10;0.97;;;7.50;94.00;;;;;;5088857;28;20677;-52
2022/03/04 01:33:36;;;;;;;2.70;0.70;;;7.60;94.10;;;;;;5080399;28;20255;-53
2022/03/04 01:36:05;;;;;;;3.60;0.80;;;7.50;94.00;;;;;;5080179;28;20229;-51
2022/03/04 01:38:32;;;;;;;2.93;0.70;;;7.50;94.00;;;;;;5081191;28;20291;-52
2022/03/04 01:40:59;;;;;;;5.33;1.10;;;7.50;94.10;;;;;;5080728;28;20205;-52
2022/03/04 01:43:27;;;;;;;1.37;0.83;;;7.50;94.10;;;;;;5077498;28;20651;-50
2022/03/04 01:45:54;;;;;;;2.03;0.70;;;7.50;94.10;;;;;;5075952;28;20207;-48
2022/03/04 01:48:22;;;;;;;8.93;1.00;;;7.50;94.10;;;;;;5075933;28;20223;-50
2022/03/04 01:50:50;;;;;;;3.23;0.70;;;7.50;94.00;;;;;;5089307;28;20264;-49
2022/03/04 01:53:20;;;;;;;3.77;0.90;;;7.50;93.90;;;;;;5086748;28;20204;-53
2022/03/04 01:55:47;;;;;;;2.37;0.60;;;7.50;93.90;;;;;;5091763;28;20651;-52
2022/03/04 01:58:14;;;;;;;4.03;0.87;;;7.50;93.90;;;;;;5085737;28;20188;-53
2022/03/04 02:00:41;;;;;;;1.60;0.93;;;7.50;93.90;;;;;;5081507;28;20606;-52
2022/03/04 02:03:11;;;;;;;2.90;0.70;;;7.50;94.00;;;;;;5087674;28;20201;-52
2022/03/04 02:05:38;;;;;;;2.00;0.80;;;7.50;94.00;;;;;;5089573;28;20296;-50
2022/03/04 02:08:06;;;;;;;1.77;0.73;;;7.50;94.00;;;;;;5085457;28;20561;-51
2022/03/04 02:10:34;;;;;;;3.90;0.70;;;7.50;94.00;;;;;;5090576;28;20192;-51
2022/03/04 02:13:02;;;;;;;2.70;0.73;;;7.50;94.00;;;;;;5087252;28;20202;-53
2022/03/04 02:15:29;;;;;;;1.47;0.80;;;7.60;93.90;;;;;;5089613;28;20212;-51
2022/03/04 02:17:56;;;;;;;2.43;0.60;;;7.50;93.70;;;;;;5087818;28;20187;-50
2022/03/04 02:20:23;;;;;;;3.40;0.77;;;7.50;93.50;;;;;;5094738;28;20535;-54
2022/03/04 02:22:52;;;;;;;5.30;0.83;;;7.50;93.30;;;;;;5076963;28;20272;-54
2022/03/04 02:25:19;;;;;;;1.17;0.60;;;7.50;93.30;;;;;;5090666;28;20265;-51
2022/03/04 02:27:46;;;;;;;2.33;0.80;;;7.40;93.40;;;;;;5077428;28;20217;-52
2022/03/04 02:30:14;;;;;;;1.20;0.70;;;7.50;93.50;;;;;;5082413;28;20299;-49
2022/03/04 02:32:41;;;;;;;0.90;0.60;;;7.50;93.50;;;;;;5086576;28;20631;-50
2022/03/04 02:35:09;;;;;;;4.33;1.00;;;7.50;93.50;;;;;;5082752;28;20724;-50
2022/03/04 02:37:38;;;;;;;3.13;0.73;;;7.50;93.40;;;;;;5100904;28;20197;-54
2022/03/04 02:40:08;;;;;;;2.30;0.80;;;7.50;93.30;;;;;;5074044;28;20259;-53
2022/03/04 02:42:35;;;;;;;2.07;0.90;;;7.50;93.30;;;;;;5073130;28;20199;-52
2022/03/04 02:45:02;;;;;;;1.90;0.83;;;7.50;93.20;;;;;;5093288;28;20297;-50
2022/03/04 02:47:29;;;;;;;2.37;0.80;;;7.50;93.30;;;;;;5083829;28;20220;-47
2022/03/04 02:49:56;;;;;;;1.10;0.87;;;7.40;93.20;;;;;;5093881;28;20436;-53
2022/03/04 02:52:23;;;;;;;2.73;0.87;;;7.40;93.30;;;;;;5094545;28;20199;-53
2022/03/04 02:54:51;;;;;;;3.70;1.03;;;7.40;93.30;;;;;;5096392;28;20251;-51
2022/03/04 02:57:19;;;;;;;2.93;1.00;;;7.40;93.20;;;;;;5083680;28;20201;-49
2022/03/04 02:59:46;;;;;;;3.90;0.80;;;7.40;93.20;;;;;;5076947;28;20307;-49
2022/03/04 03:02:13;;;;;;;7.17;1.13;;;7.40;93.30;;;;;;5082921;28;20226;-52
2022/03/04 03:04:41;;;;;;;4.90;1.00;;;7.40;93.20;;;;;;5079145;28;20322;-54
2022/03/04 03:07:08;;;;;;;2.07;0.87;;;7.40;93.30;;;;;;5071756;28;20199;-45
2022/03/04 03:09:35;;;;;;;2.23;1.03;;;7.40;93.30;;;;;;5083867;28;20792;-47
2022/03/04 03:12:03;;;;;;;4.50;0.90;;;7.40;93.30;;;;;;5077261;28;20284;-47
2022/03/04 03:14:31;;;;;;;5.70;0.77;;;7.40;93.30;;;;;;5087240;28;20204;-45
2022/03/04 03:16:58;;;;;;;3.10;1.07;;;7.40;93.40;;;;;;5091268;28;20279;-46
2022/03/04 03:19:26;;;;;;;1.87;0.80;;;7.40;93.30;;;;;;5087764;28;20189;-45
2022/03/04 03:21:53;;;;;;;2.50;0.63;;;7.40;93.40;;;;;;5072270;28;20682;-48
2022/03/04 03:24:20;;;;;;;2.70;0.70;;;7.40;93.50;;;;;;5075766;28;20224;-44
2022/03/04 03:26:47;;;;;;;5.70;0.70;;;7.40;93.50;;;;;;5081656;28;20232;-49
2022/03/04 03:29:14;;;;;;;2.40;0.90;;;7.40;93.50;;;;;;5075037;28;20225;-52
2022/03/04 03:31:43;;;;;;;2.03;0.90;;;7.40;93.50;;;;;;5081182;28;20601;-53
2022/03/04 03:34:10;;;;;;;3.33;0.77;;;7.40;93.60;;;;;;5084311;28;20533;-54
2022/03/04 03:36:38;;;;;;;1.03;0.60;;;7.30;93.70;;;;;;5090910;28;20211;-52
2022/03/04 03:39:05;;;;;;;2.07;0.57;;;7.40;93.70;;;;;;5090344;28;20192;-48
2022/03/04 03:41:32;;;;;;;1.40;0.50;;;7.30;93.70;;;;;;5090294;28;20225;-48
2022/03/04 03:43:59;;;;;;;1.37;0.60;;;7.30;93.80;;;;;;5092331;28;20224;-51
2022/03/04 03:46:26;;;;;;;0.40;0.40;;;7.30;93.80;;;;;;5091867;28;20211;-45
2022/03/04 03:48:55;;;;;;;1.40;0.60;;;7.30;93.90;;;;;;5085616;28;20256;-44
2022/03/04 03:51:23;;;;;;;1.27;0.57;;;7.30;94.00;;;;;;5089556;28;20200;-47
2022/03/04 03:53:50;;;;;;;0.83;0.60;;;7.40;94.10;;;;;;5081602;28;20207;-45
2022/03/04 03:56:17;;;;;;;0.63;0.50;;;7.40;94.00;;;;;;5081758;28;20198;-49
2022/03/04 03:58:44;;;;;;;2.23;0.77;;;7.40;94.50;;;;;;5079040;28;20196;-45
2022/03/04 04:01:11;;;;;;;1.40;0.50;;;7.40;94.30;;;;;;5080125;28;20213;-46
2022/03/04 04:03:38;;;;;;;1.80;0.60;;;7.40;94.30;;;;;;5074748;28;20230;-43
2022/03/04 04:06:07;;;;;;;1.07;0.60;;;7.40;94.40;;;;;;5081031;28;20231;-44
2022/03/04 04:08:34;;;;;;;1.23;0.63;;;7.40;94.40;;;;;;5089588;27;20214;-44
2022/03/04 04:11:01;;;;;;;1.67;0.80;;;7.50;94.40;;;;;;5080797;28;20283;-47
2022/03/04 04:13:29;;;;;;;0.60;0.50;;;7.50;94.40;;;;;;5072913;28;20195;-47
2022/03/04 04:15:56;;;;;;;1.30;0.60;;;7.50;94.40;;;;;;5076191;28;20193;-45
2022/03/04 04:18:23;;;;;;;1.33;0.60;;;7.50;94.40;;;;;;5099333;28;20256;-45
2022/03/04 04:20:50;;;;;;;1.57;0.80;;;7.50;94.40;;;;;;5091111;28;20941;-46
2022/03/04 04:23:18;;;;;;;1.47;0.80;;;7.50;94.60;;;;;;5086180;28;20762;-49
2022/03/04 04:25:46;;;;;;;3.43;0.80;;;7.50;94.70;;;;;;5088010;28;20312;-49
2022/03/04 04:28:13;;;;;;;3.20;1.00;;;7.50;95.10;;;;;;5084464;28;20524;-48
2022/03/04 04:30:40;;;;;;;2.57;0.77;;;7.50;95.30;;;;;;5080097;28;20210;-53
2022/03/04 04:33:07;;;;;;;1.63;0.80;;;7.50;95.50;;;;;;5084646;28;20220;-51
2022/03/04 04:35:34;;;;;;;1.53;0.80;;;7.50;95.60;;;;;;5093098;28;20197;-49
2022/03/04 04:38:01;;;;;;;1.77;0.80;;;7.50;95.90;;;;;;5090617;28;20202;-50
2022/03/04 04:40:29;;;;;;;0.40;0.40;;;7.40;96.10;;;;;;5089444;28;20260;-49
2022/03/04 04:42:57;;;;;;;1.63;0.57;;;7.30;96.20;;;;;;5089858;28;20202;-51
2022/03/04 04:45:24;;;;;;;1.33;0.40;;;7.20;96.30;;;;;;5087295;28;20214;-47
2022/03/04 04:47:51;;;;;;;1.07;0.50;;;7.20;96.40;;;;;;5087437;28;20195;-49
2022/03/04 04:50:18;;;;;;;2.23;0.43;;;7.10;96.40;;;;;;5086390;28;20242;-45
2022/03/04 04:52:45;;;;;;;0.60;0.50;;;7.20;96.50;;;;;;5089004;28;20202;-49
2022/03/04 04:55:12;;;;;;;0.40;0.40;;;7.20;96.50;;;;;;5099009;28;20199;-44
2022/03/04 04:57:41;;;;;;;3.10;0.70;;;7.20;96.60;;;;;;5089740;28;20287;-46
2022/03/04 05:00:08;;;;;;;2.67;0.80;;;7.30;96.90;;;;;;5093369;28;20192;-50
2022/03/04 05:02:37;;;;;;;3.47;0.73;;;7.30;97.10;;;;;;5089048;28;20204;-53
2022/03/04 05:05:04;;;;;;;0.90;0.57;;;7.40;97.20;;;;;;5084631;28;20235;-47
2022/03/04 05:07:31;;;;;;;1.60;0.60;;;7.40;97.30;;;;;;5087982;28;20253;-50
2022/03/04 05:09:59;;;;;;;2.90;0.80;;;7.40;97.40;;;;;;5095699;28;20209;-52
2022/03/04 05:12:26;;;;;;;0.97;0.60;;;7.40;97.40;;;;;;5088182;28;20202;-53
2022/03/04 05:14:54;;;;;;;1.90;0.60;;;7.30;97.40;;;;;;5085038;28;20199;-47
2022/03/04 05:17:21;;;;;;;0.53;0.53;;;7.30;97.40;;;;;;5079465;28;20198;-49
2022/03/04 05:19:48;;;;;;;1.03;0.70;;;7.30;97.60;;;;;;5084794;28;20195;-49
2022/03/04 05:22:15;;;;;;;2.80;0.70;;;7.30;97.80;;;;;;5086571;28;20282;-50
2022/03/04 05:24:42;;;;;;;2.77;0.90;;;7.30;97.80;;;;;;5079429;28;20194;-49
2022/03/04 05:27:10;;;;;;;1.87;0.90;;;7.30;97.90;;;;;;5079270;28;20223;-48
2022/03/04 05:29:37;;;;;;;2.90;0.60;;;7.30;97.90;;;;;;5090086;28;20202;-47
2022/03/04 05:32:06;;;;;;;0.80;0.57;;;7.20;97.80;;;;;;5084306;28;20204;-47
2022/03/04 05:34:33;;;;;;;2.97;0.70;;;7.20;97.80;;;;;;5088639;28;20611;-49
2022/03/04 05:37:00;;;;;;;2.23;1.27;;;7.20;97.70;;;;;;5089863;28;20234;-49
2022/03/04 05:39:27;;;;;;;3.43;1.33;;;7.20;97.50;;;;;;5086539;28;20247;-49
2022/03/04 05:41:54;;;;;;;1.10;0.90;;;7.10;97.40;;;;;;5086383;28;20202;-51
2022/03/04 05:44:22;;;;;;;4.30;0.93;;;7.10;97.30;;;;;;5086152;28;20200;-51
2022/03/04 05:46:49;;;;;;;2.80;1.30;;;7.10;97.30;;;;;;5091930;28;20258;-52
2022/03/04 05:49:17;;;;;;;0.90;0.80;;;7.10;97.20;;;;;;5086115;28;20566;-53
2022/03/04 05:51:44;;;;;;;1.43;1.30;;;7.00;97.20;;;;;;5085392;28;20249;-52
2022/03/04 05:54:12;;;;;;;0.93;0.90;;;7.10;97.30;;;;;;5086954;28;20285;-53
2022/03/04 05:56:39;;;;;;;3.53;1.00;;;7.10;97.40;;;;;;5087862;28;20190;-47
2022/03/04 05:59:07;;;;;;;1.17;0.87;;;7.10;97.50;;;;;;5085553;28;20211;-48
2022/03/04 06:01:34;;;;;;;1.20;0.70;;;7.10;97.50;;;;;;5089404;28;20207;-51
2022/03/04 06:04:01;;;;;;;0.97;0.70;;;7.10;97.50;;;;;;5089326;28;20253;-49
2022/03/04 06:06:29;;;;;;;1.27;0.60;;;7.10;97.50;;;;;;5089476;28;20812;-51
2022/03/04 06:08:56;;;;;;;3.07;0.90;;;7.20;97.50;;;;;;5086597;28;20300;-52
2022/03/04 06:11:25;;;;;;;1.57;1.03;;;7.20;97.40;;;;;;5084641;28;20251;-51
2022/03/04 06:13:52;;;;;;;3.60;1.00;;;7.20;97.30;;;;;;5080769;28;20205;-51
2022/03/04 06:16:20;;;;;;;1.40;1.10;;;7.20;97.00;;;;;;5113719;27;20282;-52
2022/03/04 06:18:47;;;;;;;2.03;0.80;;;7.20;96.90;;;;;;5086249;28;20197;-50
2022/03/04 06:21:14;;;;;;;1.27;0.80;;;7.20;96.70;;;;;;5079730;28;20594;-48
2022/03/04 06:23:43;;;;;;;1.70;0.90;;;7.20;96.20;;;;;;5081067;28;20208;-48
2022/03/04 06:26:10;;;;;;;0.87;0.70;;;7.20;95.80;;;;;;5093090;28;20228;-53
2022/03/04 06:28:37;;;;;;;5.97;1.00;;;7.20;95.40;;;;;;5089352;28;20660;-53
2022/03/04 06:31:05;;;;;;;0.90;0.60;;;7.20;95.00;;;;;;5090283;28;20593;-49
2022/03/04 06:33:32;;;;;;;1.97;0.90;;;7.30;94.90;;;;;;5085390;28;20557;-50
2022/03/04 06:36:05;;;;;;;4.43;0.93;;;7.30;94.60;;;;;;5088812;28;20195;-52
2022/03/04 06:38:34;;;;;;;1.10;0.80;;;7.30;94.40;;;;;;5093460;28;20198;-51
2022/03/04 06:41:03;;;;;;;1.03;0.70;;;7.30;94.50;;;;;;5095580;28;20210;-50
2022/03/04 06:43:31;;;;;;;1.67;0.70;;;7.30;94.60;;;;;;5089225;28;20619;-51
2022/03/04 06:45:58;;;;;;;1.27;0.67;;;7.30;94.70;;;;;;5092093;28;20214;-49
2022/03/04 06:48:26;;;;;;;2.60;1.00;;;7.40;94.90;;;;;;5092374;28;20196;-52
2022/03/04 06:50:54;;;;;;;2.60;0.90;;;7.40;95.00;;;;;;5090444;28;20252;-49
2022/03/04 06:53:22;;;;;;;4.73;0.80;;;7.50;95.30;;;;;;5088222;28;20202;-51
2022/03/04 06:55:49;;;;;;;5.43;1.20;;;7.50;95.50;;;;;;5091210;28;20708;-50
2022/03/04 06:58:18;;;;;;;3.40;0.83;;;7.50;95.70;;;;;;5088390;28;20597;-51
2022/03/04 07:00:47;;;;;;;3.17;0.97;;;7.50;95.80;;;;;;5085005;28;20192;-52
2022/03/04 07:03:14;;;;;;;2.60;0.63;;;7.50;95.90;;;;;;5085725;28;20205;-48
2022/03/04 07:05:43;;;;;;;3.20;0.97;;;7.50;95.90;;;;;;5089542;28;20234;-50
2022/03/04 07:08:11;;;;;;;2.40;1.10;;;7.50;96.00;;;;;;5086960;28;20247;-52
2022/03/04 07:10:39;;;;;;;3.43;0.80;;;7.50;95.90;;;;;;5091582;28;20669;-49
2022/03/04 07:13:06;;;;;;;4.10;0.90;;;7.50;95.90;;;;;;5090635;28;20204;-42
2022/03/04 07:15:35;;;;;;;3.23;0.90;;;7.50;95.80;;;;;;5092252;28;20205;-49
2022/03/04 07:18:03;;;;;;;3.13;1.00;;;7.60;95.80;;;;;;5091377;28;20238;-45
2022/03/04 07:20:30;;;;;;;0.77;0.60;;;7.50;95.60;;;;;;5093074;28;20309;-43
2022/03/04 07:22:58;;;;;;;1.43;0.80;;;7.50;95.20;;;;;;5089798;28;20196;-49
2022/03/04 07:25:25;;;;;;;3.90;0.77;;;7.50;95.10;;;;;;5091422;28;20232;-53
2022/03/04 07:27:52;;;;;;;2.47;0.80;;;7.40;95.30;;;;;;5086207;28;20596;-52
2022/03/04 07:30:20;;;;;;;1.37;0.63;;;7.40;95.50;;;;;;5091018;28;20594;-49
2022/03/04 07:32:49;;;;;;;1.40;1.00;;;7.30;95.70;;;;;;5089905;28;20198;-49
2022/03/04 07:35:17;;;;;;;2.23;1.10;;;7.30;96.20;;;;;;5091066;28;20205;-49
2022/03/04 07:37:44;;;;;;;1.77;1.23;;;7.30;96.50;;;;;;5091926;28;20687;-51
2022/03/04 07:40:14;;;;;;;2.97;1.37;;;7.30;96.80;;;;;;5087494;28;20194;-52
2022/03/04 07:42:42;;;;;;;1.20;1.10;;;7.30;97.00;;;;;;5088319;28;20201;-53
2022/03/04 07:45:10;;;;;;;2.60;0.90;;;7.30;97.10;;;;;;5089166;28;20196;-48
2022/03/04 07:47:38;;;;;;;1.30;0.87;;;7.30;97.30;;;;;;5094738;28;20763;-51
2022/03/04 07:50:09;;;;;;;3.23;1.03;;;7.30;97.50;;;;;;5084460;28;20678;-52
2022/03/04 07:52:36;;;;;;;2.80;0.93;;;7.40;97.80;;;;;;5079007;28;20224;-53
2022/03/04 07:55:05;;;;;;;2.73;1.40;;;7.40;98.00;;;;;;5087588;28;20696;-53
2022/03/04 07:57:33;;;;;;;2.40;1.10;;;7.40;98.10;;;;;;5088840;28;20287;-52
2022/03/04 08:00:00;;;;;;;2.83;1.50;;;7.40;98.20;;;;;;5087404;28;20190;-53
2022/03/04 08:02:27;;;;;;;2.80;1.50;;;7.40;98.40;;;;;;5087959;28;20203;-49
2022/03/04 08:04:54;;;;;;;2.37;1.47;;;7.40;98.50;;;;;;5087298;28;20232;-51
2022/03/04 08:07:22;;;;;;;1.10;1.10;;;7.30;98.70;;;;;;5090200;28;20224;-49
2022/03/04 08:09:49;;;;;;;2.50;1.20;;;7.40;98.80;;;;;;5090489;28;20196;-50
2022/03/04 08:12:17;;;;;;;1.53;1.17;;;7.40;98.80;;;;;;5089654;28;20308;-53
2022/03/04 08:14:44;;;;;;;1.97;1.40;;;7.40;99.00;;;;;;5087318;28;20203;-51
2022/03/04 08:17:12;;;;;;;1.37;1.17;;;7.30;99.00;;;;;;5089585;28;20184;-54
2022/03/04 08:19:39;;;;;;;1.00;0.90;;;7.30;99.10;;;;;;5082409;28;20214;-53
2022/03/04 08:22:06;;;;;;;2.03;1.23;;;7.40;99.20;;;;;;5080812;28;20186;-54
2022/03/04 08:24:35;;;;;;;2.07;1.10;;;7.40;99.20;;;;;;5076622;28;20478;-53
2022/03/04 08:27:03;;;;;;;1.10;1.00;;;7.50;99.30;;;;;;5078550;28;20658;-51
2022/03/04 08:29:30;;;;;;;1.50;1.10;;;7.40;99.20;;;;;;5091962;28;20197;-53
2022/03/04 08:31:57;;;;;;;1.00;0.80;;;7.40;99.10;;;;;;5090627;28;20270;-52
2022/03/04 08:34:24;;;;;;;1.03;0.80;;;7.50;99.10;;;;;;5086898;28;20870;-51
2022/03/04 08:36:51;;;;;;;2.27;0.77;;;7.50;98.90;;;;;;5087170;28;20267;-50
2022/03/04 08:39:18;;;;;;;0.53;0.53;;;7.60;98.80;;;;;;5080949;28;20199;-49
2022/03/04 08:41:47;;;;;;;1.57;0.80;;;7.50;98.60;;;;;;5082530;28;20193;-46
2022/03/04 08:44:14;;;;;;;0.70;0.50;;;7.60;98.60;;;;;;5087005;28;20623;-46
2022/03/04 08:46:41;;;;;;;1.50;0.70;;;7.60;98.50;;;;;;5090129;28;20550;-46
2022/03/04 08:49:09;;;;;;;0.77;0.77;;;7.60;98.30;;;;;;5091309;28;20536;-48
2022/03/04 08:51:37;;;;;;;1.70;0.90;;;7.60;98.20;;;;;;5088541;28;20273;-46
2022/03/04 08:54:05;;;;;;;3.23;1.00;;;7.60;98.10;;;;;;5088312;28;20673;-46
2022/03/04 08:56:33;;;;;;;0.90;0.90;;;7.60;98.10;;;;;;5089676;28;20191;-55
2022/03/04 08:59:02;;;;;;;2.27;1.50;;;7.60;98.10;;;;;;5088573;28;20245;-46
2022/03/04 09:01:29;;;;;;;2.00;1.03;;;7.60;98.00;;;;;;5089773;28;20202;-48
2022/03/04 09:03:56;;;;;;;3.60;1.10;;;7.60;97.90;;;;;;5101641;28;20614;-48
2022/03/04 09:06:24;;;;;;;1.10;0.80;;;7.60;97.80;;;;;;5088615;28;21318;-53
2022/03/04 09:08:51;;;;;;;1.70;0.90;;;7.50;97.60;;;;;;5086377;28;20201;-53
2022/03/04 09:11:20;;;;;;;0.63;0.63;;;7.50;97.50;;;;;;5088498;28;20258;-51
2022/03/04 09:13:47;;;;;;;1.77;0.80;;;7.50;97.60;;;;;;5088999;28;20646;-53
2022/03/04 09:16:16;;;;;;;2.77;1.20;;;7.50;97.70;;;;;;5088547;28;20573;-47
2022/03/04 09:18:43;;;;;;;2.20;1.27;;;7.50;97.60;;;;;;5089918;28;20196;-52
2022/03/04 09:21:11;;;;;;;2.80;1.20;;;7.50;97.60;;;;;;5089245;28;20267;-52
2022/03/04 09:23:38;;;;;;;2.17;1.20;;;7.50;97.70;;;;;;5102069;28;20577;-54
2022/03/04 09:26:05;;;;;;;2.50;0.97;;;7.50;97.70;;;;;;5089110;28;20217;-49
2022/03/04 09:28:32;;;;;;;1.43;1.20;;;7.50;97.60;;;;;;5084229;28;20359;-52
2022/03/04 09:30:59;;;;;;;2.23;0.90;;;7.50;97.50;;;;;;5089011;28;20203;-51
2022/03/04 09:33:28;;;;;;;1.70;1.00;;;7.50;97.50;;;;;;5083917;28;20309;-51
2022/03/04 09:35:55;;;;;;;1.37;1.07;;;7.50;97.50;;;;;;5086474;28;20558;-54
2022/03/04 09:38:22;;;;;;;2.67;0.97;;;7.50;97.50;;;;;;5087273;28;20505;-50
2022/03/04 09:40:50;;;;;;;2.33;1.33;;;7.50;97.50;;;;;;5088392;28;20200;-51
2022/03/04 09:43:18;;;;;;;1.10;1.00;;;7.50;97.40;;;;;;5089572;28;20293;-53
2022/03/04 09:45:47;;;;;;;2.77;1.60;;;7.60;97.30;;;;;;5091865;28;20240;-50
2022/03/04 09:48:16;;;;;;;2.13;1.63;;;7.60;97.20;;;;;;5088735;28;20903;-51
2022/03/04 09:50:46;;;;;;;6.83;2.93;;;7.60;97.10;;;;;;5089778;28;20684;-50
2022/03/04 09:53:13;;;;;;;10.90;3.60;;;7.60;97.00;;;;;;5090270;28;20196;-51
2022/03/04 09:55:42;;;;;;;7.40;2.50;;;7.70;96.80;;;;;;5095878;28;20196;-51
2022/03/04 09:58:11;;;;;;;2.80;2.33;;;7.70;96.80;;;;;;5097264;28;20680;-51
2022/03/04 10:00:38;;;;;;;2.30;1.63;;;7.70;96.70;;;;;;5101937;28;20559;-46
2022/03/04 10:03:06;;;;;;;1.93;1.20;;;7.70;96.70;;;;;;5092999;28;20663;-47
2022/03/04 10:05:33;;;;;;;2.87;1.40;;;7.70;96.70;;;;;;5093783;28;20346;-48
2022/03/04 10:08:02;;;;;;;3.00;1.53;;;7.70;96.70;;;;;;5101471;28;20731;-49
2022/03/04 10:10:29;;;;;;;1.80;1.70;;;7.70;96.70;;;;;;5109246;27;20199;-45
2022/03/04 10:12:58;;;;;;;3.00;1.50;;;7.80;96.70;;;;;;5092957;28;20204;-47
2022/03/04 10:15:26;;;;;;;1.87;1.53;;;7.80;96.60;;;;;;5093050;28;20684;-49
2022/03/04 10:18:02;;;;;;;1.60;1.50;;;7.80;96.60;;;;;;5092769;28;20560;-46
2022/03/04 10:20:38;;;;;;;4.57;2.00;;;7.70;96.50;;;;;;5093298;28;20294;-50
2022/03/04 10:23:19;;;;;;;1.77;1.40;;;7.80;96.50;;;;;;5091233;28;20200;-47
2022/03/04 10:25:49;;;;;;;2.10;1.23;;;7.80;96.50;;;;;;5094052;28;20281;-46
2022/03/04 10:28:17;;;;;;;4.10;1.50;;;7.70;96.40;;;;;;5090657;28;20237;-49
2022/03/04 10:30:47;;;;;;;5.97;1.43;;;7.70;96.50;;;;;;5093472;28;20219;-46
2022/03/04 10:33:18;;;;;;;2.23;1.13;;;7.70;96.50;;;;;;5088175;28;20210;-50
2022/03/04 10:35:46;;;;;;;6.83;1.20;;;7.70;96.50;;;;;;5091735;28;20193;-52
2022/03/04 10:38:24;;;;;;;3.20;1.27;;;7.70;96.60;;;;;;5088545;28;20204;-48
2022/03/04 10:40:52;;;;;;;2.80;1.50;;;7.70;96.60;;;;;;5105017;28;20201;-49
2022/03/04 10:43:24;;;;;;;1.53;1.17;;;7.70;96.70;;;;;;5089617;28;20220;-49
2022/03/04 10:46:03;;;;;;;1.60;1.10;;;7.70;96.80;;;;;;5090521;28;20196;-53
2022/03/04 10:48:31;;;;;;;2.27;1.30;;;7.60;96.80;;;;;;5091048;28;20215;-45
2022/03/04 10:51:04;;;;;;;1.30;0.70;;;7.60;96.90;;;;;;5093422;28;20205;-51
2022/03/04 10:53:34;;;;;;;1.87;0.70;;;7.60;96.80;;;;;;5084137;28;20194;-52
2022/03/04 10:56:04;;;;;;;0.77;0.70;;;7.70;96.80;;;;;;5091943;28;20198;-52
2022/03/04 10:58:33;;;;;;;1.50;0.80;;;7.80;96.70;;;;;;5093675;28;20203;-48
2022/03/04 11:01:05;;;;;;;3.07;1.30;;;8.10;96.40;;;;;;5089127;28;20311;-48
2022/03/04 11:03:34;;;;;;;1.47;0.80;;;9.60;95.30;;;;;;5087713;28;20206;-47
2022/03/04 11:06:03;;;;;;;1.00;0.73;;;11.00;92.60;;;;;;5086440;28;20240;-52
2022/03/04 11:08:32;;;;;;;0.80;0.80;;;12.80;90.60;;;;;;5086059;28;20298;-50
2022/03/04 11:11:00;;;;;;;3.07;1.13;;;14.30;82.60;;;;;;5096492;28;20275;-50
2022/03/04 11:13:29;;;;;;;1.10;0.90;;;14.70;78.50;;;;;;5089189;28;20209;-47
2022/03/04 11:15:57;;;;;;;1.13;1.00;;;14.60;75.50;;;;;;5083716;28;20581;-46
2022/03/04 11:18:25;;;;;;;2.00;1.20;;;14.50;74.00;;;;;;5087373;28;20190;-50
2022/03/04 11:20:53;;;;;;;2.23;1.60;;;14.90;72.60;;;;;;5090922;28;20204;-52
2022/03/04 11:23:22;;;;;;;1.10;0.97;;;14.90;71.00;;;;;;5084727;28;21110;-52
2022/03/04 11:25:57;;;;;;;1.00;1.00;;;14.90;70.80;;;;;;5090679;28;20307;-53
2022/03/04 11:28:28;;;;;;;1.40;0.93;;;14.20;70.50;;;;;;5093773;28;20599;-52
2022/03/04 11:31:00;;;;;;;0.80;0.80;;;13.50;70.90;;;;;;5087146;28;20201;-50
2022/03/04 11:33:30;;;;;;;2.93;1.30;;;12.80;71.10;;;;;;5105750;27;20314;-49
2022/03/04 11:36:03;;;;;;;6.00;1.20;;;12.40;71.50;;;;;;5080964;28;20204;-52
2022/03/04 11:39:07;;;;;;;1.80;1.30;;;12.10;72.90;;;;;;5083672;28;20197;-46
2022/03/04 11:42:06;;;;;;;1.07;1.07;;;11.80;73.90;;;;;;5087755;28;20741;-51
2022/03/04 11:44:52;;;;;;;1.30;0.90;;;11.60;74.70;;;;;;5082752;28;20219;-48
2022/03/04 11:47:20;;;;;;;2.63;1.20;;;12.30;74.70;;;;;;5091320;28;20252;-49
2022/03/04 11:49:47;;;;;;;2.37;1.20;;;12.40;72.90;;;;;;5091277;28;20192;-50
2022/03/04 11:52:25;;;;;;;5.00;1.70;;;12.10;73.00;;;;;;5090311;28;20192;-51
2022/03/04 11:55:20;;;;;;;2.57;1.83;;;11.90;73.60;;;;;;5088684;28;20201;-53
2022/03/04 11:57:57;;;;;;;3.27;1.63;;;11.50;73.50;;;;;;5094816;28;20193;-52
2022/03/04 12:00:28;;;;;;;1.63;1.30;;;11.10;74.10;;;;;;5094330;28;20216;-52
2022/03/04 12:02:56;;;;;;;2.70;1.17;;;10.90;75.00;;;;;;5090113;28;20601;-52
2022/03/04 12:05:32;;;;;;;1.63;1.00;;;10.80;75.60;;;;;;5088639;28;20236;-50
2022/03/04 12:08:10;;;;;;;0.80;0.80;;;10.60;76.10;;;;;;5088863;28;20200;-50
2022/03/04 12:10:50;;;;;;;1.17;1.10;;;10.50;76.80;;;;;;5087667;28;20192;-52
2022/03/04 12:13:20;;;;;;;0.60;0.60;;;10.50;77.30;;;;;;5098857;28;20575;-49
2022/03/04 12:15:57;;;;;;;0.60;0.60;;;10.30;77.50;;;;;;5091211;28;20284;-51
2022/03/04 12:18:36;;;;;;;1.30;0.90;;;10.60;78.20;;;;;;5088939;28;20224;-50
2022/03/04 12:21:25;;;;;;;2.20;1.17;;;11.10;77.70;;;;;;5091033;28;20217;-50
2022/03/04 12:24:00;;;;;;;0.77;0.60;;;11.60;75.80;;;;;;5087018;28;20246;-46
2022/03/04 12:26:35;;;;;;;2.27;0.80;;;11.60;75.60;;;;;;5088056;28;20218;-50
2022/03/04 12:29:05;;;;;;;0.50;0.50;;;12.50;74.70;;;;;;5088060;28;20203;-52
2022/03/04 12:31:39;;;;;;;0.60;0.60;;;13.10;72.80;;;;;;5088684;28;20265;-52
2022/03/04 12:34:16;;;;;;;0.63;0.63;;;12.90;71.90;;;;;;5087516;28;20220;-49
2022/03/04 12:36:44;;;;;;;1.47;0.90;;;12.50;70.90;;;;;;5075582;28;20610;-49
2022/03/04 12:39:11;;;;;;;0.97;0.80;;;12.40;71.00;;;;;;5075815;28;20193;-52
2022/03/04 12:41:40;;;;;;;0.70;0.70;;;13.80;71.10;;;;;;5078103;28;20211;-54
2022/03/04 12:44:08;;;;;;;0.77;0.60;;;15.50;68.40;;;;;;5100363;27;20207;-54
2022/03/04 12:46:40;;;;;;;1.27;0.87;;;17.20;62.60;;;;;;5095715;28;20253;-53
2022/03/04 12:49:08;;;;;;;0.47;0.47;;;18.30;57.50;;;;;;5091268;28;20259;-52
2022/03/04 12:51:37;;;;;;;0.50;0.50;;;19.10;55.70;;;;;;5089353;28;20231;-51
2022/03/04 12:54:06;;;;;;;1.77;0.60;;;20.30;54.60;;;;;;5082283;28;20204;-50
2022/03/04 12:56:34;;;;;;;1.10;0.80;;;21.50;50.30;;;;;;5085997;28;20566;-44
2022/03/04 12:59:02;;;;;;;2.20;0.90;;;22.50;48.10;;;;;;5083271;28;20198;-52
2022/03/04 13:01:31;;;;;;;0.70;0.70;;;23.30;45.80;;;;;;5088552;28;20216;-53